createdAt,value
2019-06-15T06:00:09.743Z,22.80
2019-06-15T06:05:15.168Z,22.80
2019-06-15T06:10:20.001Z,22.40
2019-06-15T06:15:26.792Z,21.80
2019-06-15T06:20:31.354Z,21.80
2019-06-15T06:25:36.045Z,21.60
2019-06-15T06:30:40.873Z,21.50
2019-06-15T06:35:45.564Z,21.40
2019-06-15T06:40:50.414Z,21.50
2019-06-15T06:45:55.276Z,21.40
2019-06-15T06:50:59.982Z,21.20
2019-06-15T06:56:04.757Z,21.40
2019-06-15T07:01:09.438Z,21.80
2019-06-15T07:06:14.137Z,22.00
2019-06-15T07:11:18.816Z,22.40
2019-06-15T07:16:23.581Z,22.00
2019-06-15T07:21:28.392Z,21.70
2019-06-15T07:26:33.178Z,21.40
2019-06-15T07:31:37.864Z,21.10
2019-06-15T07:36:42.637Z,21.00
2019-06-15T07:41:47.312Z,20.70
2019-06-15T07:46:52.019Z,20.30
2019-06-15T07:51:56.786Z,20.70
2019-06-15T07:57:01.495Z,21.00
2019-06-15T08:02:06.337Z,21.70
2019-06-15T08:07:11.032Z,21.60
2019-06-15T08:12:15.717Z,21.50
2019-06-15T08:17:20.696Z,21.50
2019-06-15T08:22:25.448Z,21.30
2019-06-15T08:27:31.249Z,20.90
2019-06-15T08:32:36.278Z,20.70
2019-06-15T08:37:40.958Z,20.70
2019-06-15T08:42:45.709Z,20.80
2019-06-15T08:47:50.465Z,20.90
2019-06-15T08:52:55.163Z,20.90
2019-06-15T08:58:00.108Z,20.90
2019-06-15T09:03:05.052Z,21.30
2019-06-15T09:08:09.823Z,21.90
2019-06-15T09:13:14.509Z,22.00
2019-06-15T09:18:19.315Z,22.00
2019-06-15T09:23:24.085Z,21.90
2019-06-15T09:28:28.794Z,21.70
2019-06-15T09:33:33.942Z,21.60
2019-06-15T09:38:38.637Z,21.40
2019-06-15T09:43:43.385Z,21.40
2019-06-15T09:48:48.374Z,21.20
2019-06-15T09:53:53.053Z,21.60
2019-06-15T09:58:57.741Z,21.80
2019-06-15T10:04:02.433Z,22.00
2019-06-15T10:09:07.826Z,22.30
2019-06-15T10:14:12.520Z,22.30
2019-06-15T10:19:17.461Z,22.30
2019-06-15T10:24:22.162Z,22.30
2019-06-15T10:29:41.150Z,22.50
2019-06-15T10:34:33.433Z,22.60
2019-06-15T10:39:38.113Z,22.60
2019-06-15T10:44:42.801Z,22.60
2019-06-15T10:49:47.778Z,22.50
2019-06-15T10:54:52.809Z,22.50
2019-06-15T10:59:57.973Z,22.60
2019-06-15T11:05:03.038Z,22.60
2019-06-15T11:48:09.230Z,24.70
2019-06-15T11:53:17.735Z,25.40
2019-06-15T11:58:25.967Z,26.30
2019-06-15T12:03:34.351Z,26.30
2019-06-15T12:08:42.566Z,26.30
2019-06-15T12:13:50.903Z,26.50
2019-06-15T12:18:59.024Z,27.00
2019-06-15T12:24:06.383Z,26.40
2019-06-15T12:29:14.254Z,27.10
2019-06-15T12:34:22.550Z,27.20
2019-06-15T12:39:31.220Z,27.50
2019-06-15T12:44:41.229Z,26.60
2019-06-15T12:49:49.813Z,26.00
2019-06-15T12:54:58.420Z,26.90
2019-06-15T13:00:07.010Z,27.40
2019-06-15T13:05:15.266Z,26.70
2019-06-15T13:10:23.802Z,26.00
2019-06-15T13:15:32.069Z,26.20
2019-06-15T13:20:40.115Z,27.10
2019-06-15T13:25:48.721Z,27.60
2019-06-15T13:30:56.989Z,28.20
2019-06-15T13:36:04.732Z,28.00
2019-06-15T13:41:14.263Z,28.50
2019-06-15T13:46:21.419Z,28.00
2019-06-15T13:51:28.789Z,27.70
2019-06-15T13:56:36.477Z,28.00
2019-06-15T14:01:44.977Z,27.70
2019-06-15T14:06:52.401Z,27.90
2019-06-15T14:11:59.839Z,28.00
2019-06-15T14:17:08.442Z,27.30
2019-06-15T14:22:16.028Z,27.60
2019-06-15T14:27:24.613Z,28.10
2019-06-15T14:32:33.051Z,28.40
2019-06-15T14:37:41.239Z,28.60
2019-06-15T14:42:50.845Z,28.50
2019-06-15T14:47:59.170Z,27.90
2019-06-15T14:53:09.169Z,27.40
2019-06-15T14:58:18.549Z,27.30
2019-06-15T15:03:26.826Z,28.00
2019-06-15T15:08:36.908Z,28.00
2019-06-15T15:13:47.166Z,27.10
2019-06-15T15:18:56.718Z,26.90
2019-06-15T15:24:06.215Z,27.60
2019-06-15T15:29:16.323Z,28.20
2019-06-15T15:34:26.173Z,27.90
2019-06-15T15:39:34.001Z,27.10
2019-06-15T15:44:42.389Z,26.70
2019-06-15T15:49:50.668Z,26.50
2019-06-15T15:54:59.946Z,26.70
2019-06-15T16:00:09.441Z,26.60
2019-06-15T16:05:18.135Z,26.40
2019-06-15T16:10:26.874Z,26.20
2019-06-15T16:15:36.905Z,26.20
2019-06-15T16:20:44.134Z,26.20
2019-06-15T16:25:51.612Z,26.00
2019-06-15T16:31:06.486Z,26.40
2019-06-15T16:36:08.422Z,26.80
2019-06-15T16:41:15.633Z,26.10
2019-06-15T16:46:26.270Z,25.50
2019-06-15T16:51:35.954Z,25.50
2019-06-15T16:56:46.635Z,26.10
2019-06-15T17:01:55.921Z,26.00
2019-06-15T17:07:02.415Z,25.80
2019-06-15T17:12:09.542Z,25.40
2019-06-15T17:17:17.466Z,25.20
2019-06-15T17:22:23.796Z,25.00
2019-06-15T17:27:32.393Z,24.80
2019-06-15T17:32:40.880Z,24.60
2019-06-15T17:37:47.965Z,24.50
2019-06-15T17:42:55.135Z,24.30
2019-06-15T17:48:03.451Z,24.20
2019-06-15T17:53:12.570Z,23.90
2019-06-15T17:58:20.522Z,23.80
2019-06-15T18:03:28.986Z,23.60
2019-06-15T18:08:37.280Z,23.60
2019-06-15T18:13:44.052Z,23.40
2019-06-15T18:18:53.293Z,23.10
2019-06-15T18:24:01.739Z,22.80
2019-06-15T18:29:10.220Z,22.50
2019-06-15T18:34:18.320Z,22.10
2019-06-15T18:39:26.512Z,21.90
2019-06-15T18:44:36.645Z,21.80
2019-06-15T18:49:47.099Z,21.50
2019-06-15T18:55:02.329Z,21.40
2019-06-15T19:00:12.225Z,21.20
2019-06-15T19:05:20.797Z,21.00
2019-06-15T19:10:34.771Z,20.80
2019-06-15T19:15:52.037Z,20.60
2019-06-15T19:20:59.911Z,20.50
2019-06-15T19:26:09.212Z,20.30
2019-06-15T19:31:16.057Z,20.20
2019-06-15T19:36:22.944Z,20.00
2019-06-15T19:41:30.162Z,19.80
2019-06-15T19:46:39.725Z,19.50
2019-06-15T19:51:47.239Z,19.30
2019-06-15T19:56:56.506Z,19.30
2019-06-15T20:02:03.458Z,19.20
2019-06-15T20:07:10.555Z,19.00
2019-06-15T20:12:21.561Z,19.10
2019-06-15T20:17:27.289Z,18.90
2019-06-15T20:22:37.230Z,18.80
2019-06-15T20:27:46.745Z,18.80
2019-06-15T20:32:54.174Z,18.50
2019-06-15T20:38:02.209Z,18.60
2019-06-15T20:43:09.490Z,18.60
2019-06-15T20:48:17.585Z,18.60
2019-06-15T20:53:26.704Z,18.40
2019-06-15T20:58:37.235Z,18.50
2019-06-15T21:03:47.007Z,18.20
2019-06-15T21:08:55.081Z,18.20
2019-06-15T21:14:03.108Z,18.10
2019-06-15T21:19:11.115Z,18.00
2019-06-15T21:24:19.130Z,18.00
2019-06-15T21:29:27.364Z,18.00
2019-06-15T21:34:36.243Z,18.00
2019-06-15T21:39:46.801Z,17.90
2019-06-15T21:44:56.124Z,17.90
2019-06-15T21:50:03.104Z,18.00
2019-06-15T21:55:11.918Z,17.90
2019-06-15T22:00:22.120Z,17.80
2019-06-15T22:05:32.600Z,17.80
2019-06-15T22:10:40.647Z,17.80
2019-06-15T22:15:48.512Z,17.70
2019-06-15T22:20:57.443Z,17.80
2019-06-15T22:26:06.382Z,17.70
2019-06-15T22:31:16.929Z,17.80
2019-06-15T22:36:27.860Z,17.60
2019-06-15T22:41:35.870Z,17.60
2019-06-15T22:46:41.728Z,17.60
2019-06-15T22:51:48.546Z,17.60
2019-06-15T22:56:57.157Z,17.60
2019-06-15T23:02:07.082Z,17.50
2019-06-15T23:07:16.174Z,17.50
2019-06-15T23:12:24.876Z,17.70
2019-06-15T23:17:32.926Z,17.70
2019-06-15T23:22:40.674Z,17.50
2019-06-15T23:27:48.440Z,17.50
2019-06-15T23:32:56.422Z,17.60
2019-06-15T23:38:06.523Z,17.40
2019-06-15T23:43:16.566Z,17.40
2019-06-15T23:48:23.630Z,17.40
2019-06-15T23:53:32.152Z,17.60
2019-06-15T23:58:40.855Z,17.50
